sensor_id;sensor_type;location;lat;lon;timestamp;pressure;altitude;pressure_sealevel;temperature;humidity
12624;BME280;6377;42.836;23.998;2023-06-10T00:01:44;95238.88;;;18.18;100.00
12624;BME280;6377;42.836;23.998;2023-06-10T00:04:13;95281.66;;;18.41;100.00
12624;BME280;6377;42.836;23.998;2023-06-10T00:06:40;95283.78;;;18.39;100.00
12624;BME280;6377;42.836;23.998;2023-06-10T00:09:09;95284.34;;;18.41;100.00
12624;BME280;6377;42.836;23.998;2023-06-10T00:11:37;95277.84;;;18.26;100.00
12624;BME280;6377;42.836;23.998;2023-06-10T00:14:04;95275.31;;;18.19;100.00
12624;BME280;6377;42.836;23.998;2023-06-10T00:16:32;95170.28;;;17.19;100.00
12624;BME280;6377;42.836;23.998;2023-06-10T00:19:01;95245.38;;;17.53;100.00
12624;BME280;6377;42.836;23.998;2023-06-10T00:21:30;95287.59;;;17.51;100.00
12624;BME280;6377;42.836;23.998;2023-06-10T00:24:03;95205.44;;;16.93;100.00
12624;BME280;6377;42.836;23.998;2023-06-10T00:26:31;95244.63;;;16.99;100.00
12624;BME280;6377;42.836;23.998;2023-06-10T00:28:59;95218.38;;;16.66;100.00
12624;BME280;6377;42.836;23.998;2023-06-10T00:31:26;95208.16;;;16.45;100.00
12624;BME280;6377;42.836;23.998;2023-06-10T00:33:53;95236.94;;;16.61;100.00
12624;BME280;6377;42.836;23.998;2023-06-10T00:36:22;95096.41;;;15.89;100.00
12624;BME280;6377;42.836;23.998;2023-06-10T00:38:49;95246.84;;;16.72;100.00
12624;BME280;6377;42.836;23.998;2023-06-10T00:41:17;95241.59;;;16.48;100.00
12624;BME280;6377;42.836;23.998;2023-06-10T00:43:44;95242.31;;;16.73;100.00
12624;BME280;6377;42.836;23.998;2023-06-10T00:46:12;95259.91;;;16.92;100.00
12624;BME280;6377;42.836;23.998;2023-06-10T00:48:41;95206.50;;;16.44;100.00
12624;BME280;6377;42.836;23.998;2023-06-10T00:51:09;95240.09;;;16.52;100.00
12624;BME280;6377;42.836;23.998;2023-06-10T00:53:39;95243.88;;;16.62;100.00
12624;BME280;6377;42.836;23.998;2023-06-10T00:56:07;95222.03;;;16.54;100.00
12624;BME280;6377;42.836;23.998;2023-06-10T00:58:35;95193.66;;;16.71;100.00
12624;BME280;6377;42.836;23.998;2023-06-10T01:01:03;95220.00;;;17.09;100.00
12624;BME280;6377;42.836;23.998;2023-06-10T01:03:31;95256.31;;;17.51;100.00
12624;BME280;6377;42.836;23.998;2023-06-10T01:06:07;95236.59;;;17.64;100.00
12624;BME280;6377;42.836;23.998;2023-06-10T01:08:43;95279.63;;;18.09;100.00
12624;BME280;6377;42.836;23.998;2023-06-10T01:11:19;95282.63;;;18.24;100.00
12624;BME280;6377;42.836;23.998;2023-06-10T01:13:50;95192.63;;;17.71;100.00
12624;BME280;6377;42.836;23.998;2023-06-10T01:16:19;95114.38;;;17.29;100.00
12624;BME280;6377;42.836;23.998;2023-06-10T01:18:46;95251.09;;;18.03;100.00
12624;BME280;6377;42.836;23.998;2023-06-10T01:21:19;95229.25;;;17.82;100.00
12624;BME280;6377;42.836;23.998;2023-06-10T01:23:51;95219.50;;;17.65;100.00
12624;BME280;6377;42.836;23.998;2023-06-10T01:26:20;95285.44;;;18.06;100.00
12624;BME280;6377;42.836;23.998;2023-06-10T01:28:58;95201.78;;;17.29;100.00
12624;BME280;6377;42.836;23.998;2023-06-10T01:31:33;95270.78;;;17.73;100.00
12624;BME280;6377;42.836;23.998;2023-06-10T01:34:07;95267.03;;;17.51;100.00
12624;BME280;6377;42.836;23.998;2023-06-10T01:36:38;95244.34;;;17.54;100.00
12624;BME280;6377;42.836;23.998;2023-06-10T01:39:08;95282.53;;;17.72;100.00
12624;BME280;6377;42.836;23.998;2023-06-10T01:41:38;95282.91;;;17.87;100.00
12624;BME280;6377;42.836;23.998;2023-06-10T01:44:06;95227.06;;;17.56;100.00
12624;BME280;6377;42.836;23.998;2023-06-10T01:46:33;95218.78;;;17.46;100.00
12624;BME280;6377;42.836;23.998;2023-06-10T01:49:01;95237.53;;;17.69;100.00
12624;BME280;6377;42.836;23.998;2023-06-10T01:51:28;95243.25;;;17.73;100.00
12624;BME280;6377;42.836;23.998;2023-06-10T01:53:58;95247.78;;;17.72;100.00
12624;BME280;6377;42.836;23.998;2023-06-10T01:56:25;95237.28;;;17.71;100.00
12624;BME280;6377;42.836;23.998;2023-06-10T01:58:53;95239.41;;;17.69;100.00
12624;BME280;6377;42.836;23.998;2023-06-10T02:01:24;95241.34;;;17.73;100.00
12624;BME280;6377;42.836;23.998;2023-06-10T02:03:51;95249.63;;;17.83;100.00
12624;BME280;6377;42.836;23.998;2023-06-10T02:06:19;95194.00;;;17.51;100.00
12624;BME280;6377;42.836;23.998;2023-06-10T02:08:46;95240.31;;;17.86;100.00
12624;BME280;6377;42.836;23.998;2023-06-10T02:11:15;95217.19;;;17.68;100.00
12624;BME280;6377;42.836;23.998;2023-06-10T02:13:42;95271.94;;;18.12;100.00
12624;BME280;6377;42.836;23.998;2023-06-10T02:16:10;95220.19;;;17.83;100.00
12624;BME280;6377;42.836;23.998;2023-06-10T02:18:38;95120.19;;;17.26;100.00
12624;BME280;6377;42.836;23.998;2023-06-10T02:21:06;95153.34;;;17.37;100.00
12624;BME280;6377;42.836;23.998;2023-06-10T02:23:33;95303.47;;;18.33;100.00
12624;BME280;6377;42.836;23.998;2023-06-10T02:26:01;95241.13;;;17.98;100.00
12624;BME280;6377;42.836;23.998;2023-06-10T02:28:30;95224.25;;;17.86;100.00
12624;BME280;6377;42.836;23.998;2023-06-10T02:30:58;95255.66;;;18.14;100.00
12624;BME280;6377;42.836;23.998;2023-06-10T02:33:26;95261.31;;;18.17;100.00
12624;BME280;6377;42.836;23.998;2023-06-10T02:35:54;95238.19;;;18.11;100.00
12624;BME280;6377;42.836;23.998;2023-06-10T02:38:22;95300.66;;;18.52;100.00
12624;BME280;6377;42.836;23.998;2023-06-10T02:40:49;95266.78;;;18.34;100.00
12624;BME280;6377;42.836;23.998;2023-06-10T02:43:16;95236.31;;;18.12;100.00
12624;BME280;6377;42.836;23.998;2023-06-10T02:45:45;95261.81;;;18.03;100.00
12624;BME280;6377;42.836;23.998;2023-06-10T02:48:12;95222.25;;;17.47;100.00
12624;BME280;6377;42.836;23.998;2023-06-10T02:50:40;95276.06;;;17.50;100.00
12624;BME280;6377;42.836;23.998;2023-06-10T02:53:07;95250.72;;;17.41;100.00
12624;BME280;6377;42.836;23.998;2023-06-10T02:55:35;95252.09;;;17.32;100.00
12624;BME280;6377;42.836;23.998;2023-06-10T02:58:02;95233.69;;;17.01;100.00
12624;BME280;6377;42.836;23.998;2023-06-10T03:00:31;95222.75;;;16.91;100.00
12624;BME280;6377;42.836;23.998;2023-06-10T03:03:00;95253.22;;;17.13;100.00
12624;BME280;6377;42.836;23.998;2023-06-10T03:05:28;95249.66;;;17.19;100.00
12624;BME280;6377;42.836;23.998;2023-06-10T03:07:56;95254.59;;;17.04;100.00
12624;BME280;6377;42.836;23.998;2023-06-10T03:10:23;95237.50;;;16.93;100.00
12624;BME280;6377;42.836;23.998;2023-06-10T03:12:50;95234.50;;;17.01;100.00
12624;BME280;6377;42.836;23.998;2023-06-10T03:15:18;95297.41;;;17.57;100.00
12624;BME280;6377;42.836;23.998;2023-06-10T03:17:46;95228.03;;;17.32;100.00
12624;BME280;6377;42.836;23.998;2023-06-10T03:20:15;95296.75;;;17.84;100.00
12624;BME280;6377;42.836;23.998;2023-06-10T03:22:42;95295.91;;;17.84;100.00
12624;BME280;6377;42.836;23.998;2023-06-10T03:25:09;95274.53;;;17.84;100.00
12624;BME280;6377;42.836;23.998;2023-06-10T03:27:39;95293.25;;;17.96;100.00
12624;BME280;6377;42.836;23.998;2023-06-10T03:30:07;95298.03;;;18.05;100.00
12624;BME280;6377;42.836;23.998;2023-06-10T03:32:35;95299.28;;;18.03;100.00
12624;BME280;6377;42.836;23.998;2023-06-10T03:35:02;95200.28;;;17.45;100.00
12624;BME280;6377;42.836;23.998;2023-06-10T03:37:31;95303.94;;;18.19;100.00
12624;BME280;6377;42.836;23.998;2023-06-10T03:39:58;95335.81;;;18.09;100.00
12624;BME280;6377;42.836;23.998;2023-06-10T03:42:25;95306.03;;;18.17;100.00
12624;BME280;6377;42.836;23.998;2023-06-10T03:44:53;95231.59;;;17.67;100.00
12624;BME280;6377;42.836;23.998;2023-06-10T03:47:20;95239.03;;;17.88;100.00
12624;BME280;6377;42.836;23.998;2023-06-10T03:49:48;95316.84;;;18.22;100.00
12624;BME280;6377;42.836;23.998;2023-06-10T03:52:15;95309.50;;;18.29;100.00
12624;BME280;6377;42.836;23.998;2023-06-10T03:54:45;95286.50;;;18.05;100.00
12624;BME280;6377;42.836;23.998;2023-06-10T03:57:13;95227.94;;;17.50;100.00
12624;BME280;6377;42.836;23.998;2023-06-10T03:59:40;95237.50;;;17.46;100.00
12624;BME280;6377;42.836;23.998;2023-06-10T04:02:07;95304.63;;;18.03;100.00
12624;BME280;6377;42.836;23.998;2023-06-10T04:04:34;95307.56;;;18.01;100.00
12624;BME280;6377;42.836;23.998;2023-06-10T04:07:03;95308.13;;;18.03;100.00
12624;BME280;6377;42.836;23.998;2023-06-10T04:09:30;95311.50;;;18.10;100.00
12624;BME280;6377;42.836;23.998;2023-06-10T04:11:59;95198.69;;;17.44;100.00
12624;BME280;6377;42.836;23.998;2023-06-10T04:14:27;95310.56;;;18.16;100.00
12624;BME280;6377;42.836;23.998;2023-06-10T04:16:54;95286.13;;;18.13;100.00
12624;BME280;6377;42.836;23.998;2023-06-10T04:19:21;95164.50;;;17.22;100.00
12624;BME280;6377;42.836;23.998;2023-06-10T04:22:00;95310.22;;;18.24;100.00
12624;BME280;6377;42.836;23.998;2023-06-10T04:24:27;95206.59;;;17.62;100.00
12624;BME280;6377;42.836;23.998;2023-06-10T04:26:54;95220.56;;;17.87;100.00
12624;BME280;6377;42.836;23.998;2023-06-10T04:29:23;95311.94;;;18.42;100.00
12624;BME280;6377;42.836;23.998;2023-06-10T04:31:50;95302.88;;;18.31;100.00
12624;BME280;6377;42.836;23.998;2023-06-10T04:34:18;95288.22;;;18.22;100.00
12624;BME280;6377;42.836;23.998;2023-06-10T04:36:45;95270.66;;;18.15;100.00
12624;BME280;6377;42.836;23.998;2023-06-10T04:39:12;95226.25;;;17.90;100.00
12624;BME280;6377;42.836;23.998;2023-06-10T04:41:42;95162.03;;;17.44;100.00
12624;BME280;6377;42.836;23.998;2023-06-10T04:44:09;95294.13;;;18.36;100.00
12624;BME280;6377;42.836;23.998;2023-06-10T04:46:39;95158.44;;;17.50;100.00
12624;BME280;6377;42.836;23.998;2023-06-10T04:49:06;95275.41;;;18.24;100.00
12624;BME280;6377;42.836;23.998;2023-06-10T04:51:33;95274.81;;;18.34;100.00
12624;BME280;6377;42.836;23.998;2023-06-10T04:54:00;95302.41;;;18.46;100.00
12624;BME280;6377;42.836;23.998;2023-06-10T04:56:29;95280.28;;;18.39;100.00
12624;BME280;6377;42.836;23.998;2023-06-10T04:58:57;95296.69;;;18.54;100.00
12624;BME280;6377;42.836;23.998;2023-06-10T05:01:24;95221.19;;;18.06;100.00
12624;BME280;6377;42.836;23.998;2023-06-10T05:03:52;95260.84;;;18.32;100.00
12624;BME280;6377;42.836;23.998;2023-06-10T05:06:20;95300.28;;;18.60;100.00
12624;BME280;6377;42.836;23.998;2023-06-10T05:08:47;95295.06;;;18.53;100.00
12624;BME280;6377;42.836;23.998;2023-06-10T05:11:14;95280.38;;;18.44;100.00
12624;BME280;6377;42.836;23.998;2023-06-10T05:13:42;95284.59;;;18.52;100.00
12624;BME280;6377;42.836;23.998;2023-06-10T05:16:09;95277.84;;;18.49;100.00
12624;BME280;6377;42.836;23.998;2023-06-10T05:18:36;95270.97;;;18.30;100.00
12624;BME280;6377;42.836;23.998;2023-06-10T05:21:05;95297.38;;;18.50;100.00
12624;BME280;6377;42.836;23.998;2023-06-10T05:23:33;95287.03;;;18.30;100.00
12624;BME280;6377;42.836;23.998;2023-06-10T05:26:00;95211.94;;;17.73;100.00
12624;BME280;6377;42.836;23.998;2023-06-10T05:28:27;95318.00;;;18.26;100.00
12624;BME280;6377;42.836;23.998;2023-06-10T05:30:54;95249.84;;;17.93;100.00
12624;BME280;6377;42.836;23.998;2023-06-10T05:33:21;95153.09;;;17.38;100.00
12624;BME280;6377;42.836;23.998;2023-06-10T05:35:49;95264.84;;;18.06;100.00
12624;BME280;6377;42.836;23.998;2023-06-10T05:38:17;95287.88;;;18.19;100.00
12624;BME280;6377;42.836;23.998;2023-06-10T05:40:45;95281.03;;;18.23;100.00
12624;BME280;6377;42.836;23.998;2023-06-10T05:43:12;95282.97;;;18.27;100.00
12624;BME280;6377;42.836;23.998;2023-06-10T05:45:42;95185.53;;;17.77;100.00
12624;BME280;6377;42.836;23.998;2023-06-10T05:48:09;95164.16;;;17.65;100.00
12624;BME280;6377;42.836;23.998;2023-06-10T05:50:37;95214.09;;;18.11;100.00
12624;BME280;6377;42.836;23.998;2023-06-10T05:53:05;95248.50;;;18.54;100.00
12624;BME280;6377;42.836;23.998;2023-06-10T05:55:42;95208.84;;;18.28;100.00
12624;BME280;6377;42.836;23.998;2023-06-10T05:58:09;95255.78;;;18.59;100.00
12624;BME280;6377;42.836;23.998;2023-06-10T06:00:38;95252.00;;;18.55;100.00
12624;BME280;6377;42.836;23.998;2023-06-10T06:03:06;95284.06;;;18.78;100.00
12624;BME280;6377;42.836;23.998;2023-06-10T06:05:34;95256.03;;;18.57;100.00
12624;BME280;6377;42.836;23.998;2023-06-10T06:08:03;95191.03;;;18.22;100.00
12624;BME280;6377;42.836;23.998;2023-06-10T06:10:30;95134.47;;;17.90;100.00
12624;BME280;6377;42.836;23.998;2023-06-10T06:13:00;95238.34;;;18.56;100.00
12624;BME280;6377;42.836;23.998;2023-06-10T06:15:27;95260.75;;;18.78;100.00
12624;BME280;6377;42.836;23.998;2023-06-10T06:17:55;95239.94;;;18.69;100.00
12624;BME280;6377;42.836;23.998;2023-06-10T06:20:22;95256.53;;;18.82;100.00
12624;BME280;6377;42.836;23.998;2023-06-10T06:22:50;95252.13;;;18.76;100.00
12624;BME280;6377;42.836;23.998;2023-06-10T06:25:17;95266.16;;;18.95;100.00
12624;BME280;6377;42.836;23.998;2023-06-10T06:27:45;95239.97;;;18.85;100.00
12624;BME280;6377;42.836;23.998;2023-06-10T06:30:14;95240.56;;;18.87;100.00
12624;BME280;6377;42.836;23.998;2023-06-10T06:32:41;95246.50;;;18.89;100.00
12624;BME280;6377;42.836;23.998;2023-06-10T06:35:08;95284.88;;;19.23;100.00
12624;BME280;6377;42.836;23.998;2023-06-10T06:37:36;95248.72;;;19.09;100.00
12624;BME280;6377;42.836;23.998;2023-06-10T06:40:04;95231.50;;;19.05;100.00
12624;BME280;6377;42.836;23.998;2023-06-10T06:42:31;95236.88;;;19.22;100.00
12624;BME280;6377;42.836;23.998;2023-06-10T06:44:59;95205.34;;;19.12;100.00
12624;BME280;6377;42.836;23.998;2023-06-10T06:47:28;95248.66;;;19.49;100.00
12624;BME280;6377;42.836;23.998;2023-06-10T06:49:55;95243.13;;;19.27;100.00
12624;BME280;6377;42.836;23.998;2023-06-10T06:52:22;95249.72;;;19.20;100.00
12624;BME280;6377;42.836;23.998;2023-06-10T06:54:50;95237.78;;;19.27;100.00
12624;BME280;6377;42.836;23.998;2023-06-10T06:57:17;95275.06;;;19.57;100.00
12624;BME280;6377;42.836;23.998;2023-06-10T06:59:45;95241.22;;;19.56;100.00
12624;BME280;6377;42.836;23.998;2023-06-10T07:02:12;95231.53;;;19.55;100.00
12624;BME280;6377;42.836;23.998;2023-06-10T07:04:41;95231.88;;;19.58;100.00
12624;BME280;6377;42.836;23.998;2023-06-10T07:07:08;95217.16;;;19.61;100.00
12624;BME280;6377;42.836;23.998;2023-06-10T07:09:35;95221.44;;;19.79;100.00
12624;BME280;6377;42.836;23.998;2023-06-10T07:12:03;95218.91;;;19.89;100.00
12624;BME280;6377;42.836;23.998;2023-06-10T07:14:31;95234.59;;;20.13;100.00
12624;BME280;6377;42.836;23.998;2023-06-10T07:16:58;95255.09;;;20.41;100.00
12624;BME280;6377;42.836;23.998;2023-06-10T07:19:25;95256.34;;;20.55;100.00
12624;BME280;6377;42.836;23.998;2023-06-10T07:21:54;95245.06;;;20.53;100.00
12624;BME280;6377;42.836;23.998;2023-06-10T07:24:21;95206.81;;;20.08;100.00
12624;BME280;6377;42.836;23.998;2023-06-10T07:26:48;95246.72;;;20.38;100.00
12624;BME280;6377;42.836;23.998;2023-06-10T07:29:16;95258.03;;;20.61;100.00
12624;BME280;6377;42.836;23.998;2023-06-10T07:31:43;95183.34;;;20.20;100.00
12624;BME280;6377;42.836;23.998;2023-06-10T07:34:10;95236.53;;;20.61;100.00
12624;BME280;6377;42.836;23.998;2023-06-10T07:36:37;95135.38;;;20.02;100.00
12624;BME280;6377;42.836;23.998;2023-06-10T07:39:06;95197.88;;;20.62;100.00
12624;BME280;6377;42.836;23.998;2023-06-10T07:41:34;95150.00;;;20.59;100.00
12624;BME280;6377;42.836;23.998;2023-06-10T07:44:01;95245.66;;;21.31;100.00
12624;BME280;6377;42.836;23.998;2023-06-10T07:46:29;95204.19;;;21.27;100.00
12624;BME280;6377;42.836;23.998;2023-06-10T07:48:56;95254.31;;;21.69;100.00
12624;BME280;6377;42.836;23.998;2023-06-10T07:51:23;95227.88;;;21.61;100.00
12624;BME280;6377;42.836;23.998;2023-06-10T07:53:50;95241.84;;;21.90;92.08
12624;BME280;6377;42.836;23.998;2023-06-10T07:56:19;95237.69;;;22.14;88.10
12624;BME280;6377;42.836;23.998;2023-06-10T07:58:47;95252.00;;;22.20;84.97
12624;BME280;6377;42.836;23.998;2023-06-10T08:01:14;95217.88;;;22.36;73.36
12624;BME280;6377;42.836;23.998;2023-06-10T08:03:42;95233.00;;;22.42;67.10
12624;BME280;6377;42.836;23.998;2023-06-10T08:06:09;95233.88;;;22.57;65.01
12624;BME280;6377;42.836;23.998;2023-06-10T08:08:37;95178.50;;;22.29;62.34
12624;BME280;6377;42.836;23.998;2023-06-10T08:11:08;95236.16;;;22.80;70.09
12624;BME280;6377;42.836;23.998;2023-06-10T08:13:37;95246.41;;;22.88;66.03
12624;BME280;6377;42.836;23.998;2023-06-10T08:16:05;95215.13;;;22.87;65.21
12624;BME280;6377;42.836;23.998;2023-06-10T08:18:33;95150.75;;;22.34;57.70
12624;BME280;6377;42.836;23.998;2023-06-10T08:21:00;95211.06;;;22.75;60.64
12624;BME280;6377;42.836;23.998;2023-06-10T08:23:28;95143.53;;;22.40;59.58
12624;BME280;6377;42.836;23.998;2023-06-10T08:25:55;95230.22;;;22.88;61.44
12624;BME280;6377;42.836;23.998;2023-06-10T08:28:23;95210.00;;;22.96;59.45
12624;BME280;6377;42.836;23.998;2023-06-10T08:30:52;95229.69;;;22.86;57.78
12624;BME280;6377;42.836;23.998;2023-06-10T08:33:19;95205.38;;;22.76;56.80
12624;BME280;6377;42.836;23.998;2023-06-10T08:35:46;95130.81;;;22.25;56.40
12624;BME280;6377;42.836;23.998;2023-06-10T08:38:14;95150.28;;;22.42;56.93
12624;BME280;6377;42.836;23.998;2023-06-10T08:40:41;95120.59;;;22.32;61.26
12624;BME280;6377;42.836;23.998;2023-06-10T08:43:16;95220.88;;;23.26;64.45
12624;BME280;6377;42.836;23.998;2023-06-10T08:45:46;95214.66;;;23.16;56.89
12624;BME280;6377;42.836;23.998;2023-06-10T08:48:19;95101.81;;;22.62;59.42
12624;BME280;6377;42.836;23.998;2023-06-10T08:50:47;95210.13;;;23.62;54.66
12624;BME280;6377;42.836;23.998;2023-06-10T08:53:18;95115.09;;;22.94;57.21
12624;BME280;6377;42.836;23.998;2023-06-10T08:55:50;95203.09;;;23.51;62.68
12624;BME280;6377;42.836;23.998;2023-06-10T08:58:19;95080.28;;;22.87;53.90
12624;BME280;6377;42.836;23.998;2023-06-10T09:00:46;95114.03;;;23.40;59.57
12624;BME280;6377;42.836;23.998;2023-06-10T09:03:14;95160.69;;;23.66;56.00
12624;BME280;6377;42.836;23.998;2023-06-10T09:05:44;95200.84;;;24.28;57.30
12624;BME280;6377;42.836;23.998;2023-06-10T09:08:11;95196.75;;;24.41;58.45
12624;BME280;6377;42.836;23.998;2023-06-10T09:10:39;95146.78;;;24.33;57.37
12624;BME280;6377;42.836;23.998;2023-06-10T09:13:07;95196.34;;;24.73;57.13
12624;BME280;6377;42.836;23.998;2023-06-10T09:15:34;95177.09;;;24.79;57.05
12624;BME280;6377;42.836;23.998;2023-06-10T09:18:02;95193.34;;;24.84;56.42
12624;BME280;6377;42.836;23.998;2023-06-10T09:20:30;95184.91;;;24.91;56.84
12624;BME280;6377;42.836;23.998;2023-06-10T09:22:59;95187.63;;;24.91;55.67
12624;BME280;6377;42.836;23.998;2023-06-10T09:25:35;95183.81;;;24.97;54.19
12624;BME280;6377;42.836;23.998;2023-06-10T09:28:04;95144.94;;;24.83;56.53
12624;BME280;6377;42.836;23.998;2023-06-10T09:30:33;95151.94;;;24.79;53.45
12624;BME280;6377;42.836;23.998;2023-06-10T09:33:01;95163.88;;;24.83;56.85
12624;BME280;6377;42.836;23.998;2023-06-10T09:35:45;95174.53;;;25.08;59.38
12624;BME280;6377;42.836;23.998;2023-06-10T09:38:14;95174.00;;;25.06;60.50
12624;BME280;6377;42.836;23.998;2023-06-10T09:40:49;95176.25;;;24.94;58.60
12624;BME280;6377;42.836;23.998;2023-06-10T09:43:17;95169.66;;;25.05;57.79
12624;BME280;6377;42.836;23.998;2023-06-10T09:45:47;95154.34;;;24.90;58.53
12624;BME280;6377;42.836;23.998;2023-06-10T09:48:15;95168.72;;;25.25;59.70
12624;BME280;6377;42.836;23.998;2023-06-10T09:50:42;95168.19;;;25.61;58.19
12624;BME280;6377;42.836;23.998;2023-06-10T09:53:10;95120.59;;;25.17;56.55
12624;BME280;6377;42.836;23.998;2023-06-10T09:55:40;95164.00;;;25.40;57.34
12624;BME280;6377;42.836;23.998;2023-06-10T09:58:08;95163.97;;;25.50;57.30
12624;BME280;6377;42.836;23.998;2023-06-10T10:00:36;95148.53;;;25.51;56.49
12624;BME280;6377;42.836;23.998;2023-06-10T10:03:03;95168.13;;;25.67;56.35
12624;BME280;6377;42.836;23.998;2023-06-10T10:05:32;95173.59;;;25.61;57.55
12624;BME280;6377;42.836;23.998;2023-06-10T10:07:59;95160.63;;;25.58;56.16
12624;BME280;6377;42.836;23.998;2023-06-10T10:10:26;95130.34;;;25.18;56.90
12624;BME280;6377;42.836;23.998;2023-06-10T10:12:55;95167.69;;;25.54;57.72
12624;BME280;6377;42.836;23.998;2023-06-10T10:15:24;95161.44;;;25.88;55.74
12624;BME280;6377;42.836;23.998;2023-06-10T10:17:58;95158.06;;;26.25;54.08
12624;BME280;6377;42.836;23.998;2023-06-10T10:20:29;95157.09;;;26.39;54.53
12624;BME280;6377;42.836;23.998;2023-06-10T10:22:59;95151.25;;;26.51;53.39
12624;BME280;6377;42.836;23.998;2023-06-10T10:25:33;95062.50;;;26.14;50.95
12624;BME280;6377;42.836;23.998;2023-06-10T10:28:07;95154.56;;;27.09;47.28
12624;BME280;6377;42.836;23.998;2023-06-10T10:30:39;95130.44;;;27.07;47.18
12624;BME280;6377;42.836;23.998;2023-06-10T10:33:12;95040.06;;;26.51;48.27
12624;BME280;6377;42.836;23.998;2023-06-10T10:35:39;95052.88;;;26.27;45.25
12624;BME280;6377;42.836;23.998;2023-06-10T10:38:07;95143.94;;;26.94;46.76
12624;BME280;6377;42.836;23.998;2023-06-10T10:40:36;95068.16;;;26.79;46.44
12624;BME280;6377;42.836;23.998;2023-06-10T10:43:06;95154.13;;;27.02;45.72
12624;BME280;6377;42.836;23.998;2023-06-10T10:45:33;95129.28;;;26.95;45.36
12624;BME280;6377;42.836;23.998;2023-06-10T10:48:06;95133.41;;;27.24;44.35
12624;BME280;6377;42.836;23.998;2023-06-10T10:50:37;95136.94;;;27.25;44.54
12624;BME280;6377;42.836;23.998;2023-06-10T10:53:05;95126.66;;;27.73;44.18
12624;BME280;6377;42.836;23.998;2023-06-10T10:55:33;95123.31;;;28.08;43.12
12624;BME280;6377;42.836;23.998;2023-06-10T10:58:03;95125.34;;;28.16;42.13
12624;BME280;6377;42.836;23.998;2023-06-10T11:00:34;95054.66;;;27.57;42.65
12624;BME280;6377;42.836;23.998;2023-06-10T11:03:06;95126.25;;;28.25;42.73
12624;BME280;6377;42.836;23.998;2023-06-10T11:05:39;95140.13;;;28.51;42.11
12624;BME280;6377;42.836;23.998;2023-06-10T11:08:08;95122.31;;;28.04;41.36
12624;BME280;6377;42.836;23.998;2023-06-10T11:10:36;95126.16;;;28.17;41.81
12624;BME280;6377;42.836;23.998;2023-06-10T11:13:08;95125.09;;;28.54;41.95
12624;BME280;6377;42.836;23.998;2023-06-10T11:15:42;95109.91;;;28.39;41.84
12624;BME280;6377;42.836;23.998;2023-06-10T11:18:15;95069.44;;;28.38;41.43
12624;BME280;6377;42.836;23.998;2023-06-10T11:20:58;95112.16;;;29.22;41.41
12624;BME280;6377;42.836;23.998;2023-06-10T11:23:39;95098.56;;;29.67;38.91
12624;BME280;6377;42.836;23.998;2023-06-10T11:26:21;95096.25;;;30.13;37.77
12624;BME280;6377;42.836;23.998;2023-06-10T11:29:02;95095.44;;;29.15;39.17
12624;BME280;6377;42.836;23.998;2023-06-10T11:31:32;95096.34;;;29.24;39.70
12624;BME280;6377;42.836;23.998;2023-06-10T11:34:02;95096.22;;;29.52;40.32
12624;BME280;6377;42.836;23.998;2023-06-10T11:36:31;95089.72;;;29.61;40.78
12624;BME280;6377;42.836;23.998;2023-06-10T11:38:59;95095.50;;;29.68;39.66
12624;BME280;6377;42.836;23.998;2023-06-10T11:41:28;95092.81;;;29.77;40.00
12624;BME280;6377;42.836;23.998;2023-06-10T11:44:02;95047.91;;;29.74;39.77
12624;BME280;6377;42.836;23.998;2023-06-10T11:46:37;95023.31;;;29.26;39.58
12624;BME280;6377;42.836;23.998;2023-06-10T11:49:08;95030.34;;;29.27;39.33
12624;BME280;6377;42.836;23.998;2023-06-10T11:51:37;95094.50;;;29.56;40.21
12624;BME280;6377;42.836;23.998;2023-06-10T11:54:08;94959.63;;;27.70;40.40
12624;BME280;6377;42.836;23.998;2023-06-10T11:56:35;95014.94;;;27.74;41.62
12624;BME280;6377;42.836;23.998;2023-06-10T11:59:03;95067.66;;;27.60;42.55
12624;BME280;6377;42.836;23.998;2023-06-10T12:01:34;94993.56;;;27.27;43.05
12624;BME280;6377;42.836;23.998;2023-06-10T12:04:03;95078.84;;;28.54;41.06
12624;BME280;6377;42.836;23.998;2023-06-10T12:06:44;95056.25;;;28.80;39.92
12624;BME280;6377;42.836;23.998;2023-06-10T12:09:20;95027.91;;;29.04;38.51
12624;BME280;6377;42.836;23.998;2023-06-10T12:11:51;94992.66;;;29.21;37.70
12624;BME280;6377;42.836;23.998;2023-06-10T12:14:55;95069.69;;;29.35;38.36
12624;BME280;6377;42.836;23.998;2023-06-10T12:17:36;95063.81;;;30.03;37.97
12624;BME280;6377;42.836;23.998;2023-06-10T12:20:05;95066.00;;;30.32;37.22
12624;BME280;6377;42.836;23.998;2023-06-10T12:22:37;95047.16;;;30.78;37.05
12624;BME280;6377;42.836;23.998;2023-06-10T12:25:05;95068.34;;;31.41;35.35
12624;BME280;6377;42.836;23.998;2023-06-10T12:27:33;95068.22;;;32.01;34.14
12624;BME280;6377;42.836;23.998;2023-06-10T12:30:03;95060.63;;;32.15;34.33
12624;BME280;6377;42.836;23.998;2023-06-10T12:32:40;95029.81;;;31.89;34.13
12624;BME280;6377;42.836;23.998;2023-06-10T12:35:08;94985.81;;;31.01;34.79
12624;BME280;6377;42.836;23.998;2023-06-10T12:37:36;94987.38;;;30.77;35.40
12624;BME280;6377;42.836;23.998;2023-06-10T12:40:05;95052.59;;;31.55;35.04
12624;BME280;6377;42.836;23.998;2023-06-10T12:42:35;95029.66;;;31.86;34.57
12624;BME280;6377;42.836;23.998;2023-06-10T12:45:03;95013.13;;;31.74;34.66
12624;BME280;6377;42.836;23.998;2023-06-10T12:47:33;95051.63;;;30.74;35.44
12624;BME280;6377;42.836;23.998;2023-06-10T12:50:04;95050.06;;;31.07;35.95
12624;BME280;6377;42.836;23.998;2023-06-10T12:52:31;95012.13;;;31.23;35.35
12624;BME280;6377;42.836;23.998;2023-06-10T12:54:59;95044.16;;;31.78;34.65
12624;BME280;6377;42.836;23.998;2023-06-10T12:57:26;95051.00;;;32.01;33.77
12624;BME280;6377;42.836;23.998;2023-06-10T12:59:53;95045.75;;;31.87;33.96
12624;BME280;6377;42.836;23.998;2023-06-10T13:02:26;94974.00;;;31.27;34.02
12624;BME280;6377;42.836;23.998;2023-06-10T13:04:53;95042.31;;;31.52;34.39